Terminal Aerodrome Forecast
Issued by NWS Springfield, MO

Home | Current Version | Previous Version | Text Only | Print | Product List | Glossary On
Versions: 1 2 3 4 5 6 7 8 9 10 11 12 13 14 15 16
000
FTUS43 KSGF 141700
TAFSGF
TAF
KSGF 141727Z 1418/1518 33016G25KT P6SM OVC010
     FM141900 33016G25KT P6SM OVC020
     FM142045 33016G25KT P6SM OVC050
     FM150100 34008KT P6SM SKC
     FM150400 VRB05KT P6SM SKC
     FM151400 32007KT P6SM SKC=

USA.gov is the U.S. government's official web portal to all federal, state and local government web resources and services.